createdAt,value
2023-03-25T00:00:16.752Z,17.48
2023-03-25T00:00:39.552Z,17.33
2023-03-25T00:01:02.971Z,17.31
2023-03-25T00:01:25.982Z,17.11
2023-03-25T00:01:48.984Z,17.27
2023-03-25T00:02:12.549Z,17.31
2023-03-25T00:02:34.711Z,17.40
2023-03-25T00:02:57.136Z,17.47
2023-03-25T00:03:22.384Z,17.54
2023-03-25T00:03:46.535Z,17.60
2023-03-25T00:04:08.696Z,17.66
2023-03-25T00:04:31.246Z,17.71
2023-03-25T00:04:54.445Z,17.73
2023-03-25T00:05:18.924Z,17.77
2023-03-25T00:05:40.586Z,17.79
2023-03-25T00:06:02.266Z,17.79
2023-03-25T00:06:24.896Z,17.75
2023-03-25T00:06:46.837Z,17.70
2023-03-25T00:07:08.507Z,17.74
2023-03-25T00:07:30.097Z,17.73
2023-03-25T00:07:53.807Z,17.75
2023-03-25T00:08:15.755Z,17.70
2023-03-25T00:08:37.946Z,17.74
2023-03-25T00:08:59.539Z,17.72
2023-03-25T00:09:22.083Z,17.43
2023-03-25T00:09:43.719Z,17.67
2023-03-25T00:10:07.044Z,17.71
2023-03-25T00:10:29.976Z,17.72
2023-03-25T00:10:54.310Z,17.73
2023-03-25T00:11:15.948Z,17.75
2023-03-25T00:11:37.585Z,17.77
2023-03-25T00:11:59.242Z,17.60
2023-03-25T00:12:21.884Z,17.52
2023-03-25T00:12:43.721Z,17.51
2023-03-25T00:13:05.873Z,17.56
2023-03-25T00:13:27.921Z,17.56
2023-03-25T00:13:50.803Z,17.61
2023-03-25T00:14:12.471Z,17.66
2023-03-25T00:14:34.097Z,17.68
2023-03-25T00:14:55.766Z,17.68
2023-03-25T00:15:18.636Z,17.75
2023-03-25T00:15:42.799Z,17.65
2023-03-25T00:16:07.107Z,17.61
2023-03-25T00:16:28.858Z,17.63
2023-03-25T00:16:53.200Z,17.61
2023-03-25T00:17:17.405Z,17.52
2023-03-25T00:17:39.523Z,17.61
2023-03-25T00:18:02.099Z,17.62
2023-03-25T00:18:26.517Z,17.67
2023-03-25T00:18:48.156Z,17.62
2023-03-25T00:19:09.848Z,17.64
2023-03-25T00:19:31.979Z,17.67
2023-03-25T00:19:55.519Z,17.73
2023-03-25T00:20:18.296Z,17.63
2023-03-25T00:20:40.893Z,17.70
2023-03-25T00:21:04.652Z,17.73
2023-03-25T00:21:27.421Z,17.75
2023-03-25T00:21:50.418Z,17.77
2023-03-25T00:22:12.166Z,17.77
2023-03-25T00:22:33.796Z,17.81
2023-03-25T00:22:56.701Z,17.76
2023-03-25T00:23:19.684Z,17.66
2023-03-25T00:23:42.262Z,17.73
2023-03-25T00:24:04.078Z,17.77
2023-03-25T00:24:26.765Z,17.76
2023-03-25T00:24:49.140Z,17.82
2023-03-25T00:25:16.439Z,17.76
2023-03-25T00:25:39.628Z,17.75
2023-03-25T00:26:03.131Z,17.65
2023-03-25T00:26:24.900Z,17.67
2023-03-25T00:26:48.754Z,17.60
2023-03-25T00:27:11.883Z,17.65
2023-03-25T00:27:34.699Z,17.59
2023-03-25T00:27:56.656Z,17.60
2023-03-25T00:28:18.933Z,17.67
2023-03-25T00:28:40.629Z,17.73
2023-03-25T00:29:03.301Z,17.76
2023-03-25T00:29:25.052Z,17.69
2023-03-25T00:29:48.681Z,17.72
2023-03-25T00:30:11.731Z,17.76
2023-03-25T00:30:34.693Z,17.76
2023-03-25T00:30:58.867Z,17.74
2023-03-25T00:31:22.097Z,17.81
2023-03-25T00:31:44.051Z,17.84
2023-03-25T00:32:07.313Z,17.77
2023-03-25T00:32:29.670Z,17.84
2023-03-25T00:32:52.550Z,17.84
2023-03-25T00:33:18.070Z,17.81
2023-03-25T00:33:41.876Z,17.75
2023-03-25T00:34:03.707Z,17.68
2023-03-25T00:34:26.775Z,17.83
2023-03-25T00:34:48.755Z,17.81
2023-03-25T00:35:10.638Z,17.72
2023-03-25T00:35:33.986Z,17.62
2023-03-25T00:36:01.882Z,17.66
2023-03-25T00:36:26.144Z,17.76
2023-03-25T00:36:47.834Z,17.80
2023-03-25T00:37:11.736Z,17.81
2023-03-25T00:37:33.361Z,17.83
2023-03-25T00:38:00.083Z,17.75
2023-03-25T00:38:24.412Z,17.72
2023-03-25T00:38:50.063Z,17.61
2023-03-25T00:39:11.767Z,17.55
2023-03-25T00:39:33.711Z,17.58
2023-03-25T00:39:55.375Z,17.50
2023-03-25T00:40:17.158Z,17.51
2023-03-25T00:40:41.969Z,17.47
2023-03-25T00:41:11.120Z,17.49
2023-03-25T00:41:33.588Z,17.48
2023-03-25T00:41:57.226Z,17.43
2023-03-25T00:42:26.031Z,17.34
2023-03-25T00:42:50.074Z,17.16
2023-03-25T00:43:14.367Z,17.15
2023-03-25T00:43:37.686Z,17.13
2023-03-25T00:44:00.663Z,17.23
2023-03-25T00:44:23.581Z,17.32
2023-03-25T00:44:45.459Z,17.32
2023-03-25T00:45:08.422Z,17.31
2023-03-25T00:45:31.766Z,17.28
2023-03-25T00:45:55.411Z,17.19
2023-03-25T00:46:17.284Z,17.24
2023-03-25T00:46:38.961Z,17.25
2023-03-25T00:47:01.645Z,17.24
2023-03-25T00:47:24.594Z,17.25
2023-03-25T00:47:46.422Z,17.30
2023-03-25T00:48:08.205Z,17.23
2023-03-25T00:48:30.045Z,17.28
2023-03-25T00:48:52.816Z,17.34
2023-03-25T00:49:14.525Z,17.39
2023-03-25T00:49:36.644Z,17.30
2023-03-25T00:49:58.311Z,17.32
2023-03-25T00:50:21.852Z,17.37
2023-03-25T00:50:43.497Z,17.35
2023-03-25T00:51:08.990Z,17.33
2023-03-25T00:51:31.384Z,17.33
2023-03-25T00:51:54.323Z,17.30
2023-03-25T00:52:16.446Z,17.35
2023-03-25T00:52:38.216Z,17.12
2023-03-25T00:52:59.819Z,17.11
2023-03-25T00:53:21.478Z,16.99
2023-03-25T00:53:44.110Z,17.06
2023-03-25T00:54:07.492Z,17.01
2023-03-25T00:54:29.137Z,16.95
2023-03-25T00:54:50.765Z,16.91
2023-03-25T00:55:12.578Z,16.74
2023-03-25T00:55:35.324Z,16.71
2023-03-25T00:55:59.574Z,16.67
2023-03-25T00:56:22.117Z,16.75
2023-03-25T00:56:44.576Z,16.86
2023-03-25T00:57:08.588Z,16.91
2023-03-25T00:57:32.185Z,17.00
2023-03-25T00:57:53.883Z,17.02
2023-03-25T00:58:15.682Z,17.07
2023-03-25T00:58:38.632Z,17.10
2023-03-25T00:59:00.335Z,17.13
2023-03-25T00:59:22.124Z,16.93
2023-03-25T00:59:43.789Z,16.91
2023-03-25T01:00:08.657Z,16.63
2023-03-25T01:00:31.036Z,16.91
2023-03-25T01:00:53.020Z,17.03
2023-03-25T01:01:19.248Z,17.06
2023-03-25T01:01:43.453Z,17.16
2023-03-25T01:02:06.834Z,17.23
2023-03-25T01:02:31.087Z,17.31
2023-03-25T01:02:54.033Z,17.36
2023-03-25T01:03:16.533Z,17.31
2023-03-25T01:03:39.522Z,17.23
2023-03-25T01:04:02.216Z,17.26
2023-03-25T01:04:24.135Z,17.26
2023-03-25T01:04:46.582Z,17.24
2023-03-25T01:05:11.335Z,17.22
2023-03-25T01:05:33.251Z,17.23
2023-03-25T01:05:56.518Z,17.29
2023-03-25T01:06:18.100Z,17.28
2023-03-25T01:06:43.974Z,17.27
2023-03-25T01:07:05.872Z,17.38
2023-03-25T01:07:29.337Z,17.41
2023-03-25T01:07:51.763Z,17.22
2023-03-25T01:08:14.948Z,17.21
2023-03-25T01:08:37.608Z,17.20
2023-03-25T01:09:01.047Z,17.19
2023-03-25T01:09:22.727Z,17.09
2023-03-25T01:09:46.524Z,16.99
2023-03-25T01:10:11.612Z,17.06
2023-03-25T01:10:35.553Z,17.13
2023-03-25T01:10:57.322Z,17.12
2023-03-25T01:11:22.992Z,17.16
2023-03-25T01:11:47.370Z,17.21
2023-03-25T01:12:09.368Z,17.21
2023-03-25T01:12:31.615Z,17.20
2023-03-25T01:12:53.227Z,17.07
2023-03-25T01:13:14.870Z,17.09
2023-03-25T01:13:39.794Z,17.13
2023-03-25T01:14:08.065Z,17.08
2023-03-25T01:14:29.916Z,17.01
2023-03-25T01:14:53.181Z,17.01
2023-03-25T01:15:16.288Z,17.07
2023-03-25T01:15:40.811Z,17.13
2023-03-25T01:16:07.827Z,17.15
2023-03-25T01:16:31.549Z,17.10
2023-03-25T01:16:55.519Z,17.10
2023-03-25T01:17:17.365Z,17.15
2023-03-25T01:17:39.226Z,17.20
2023-03-25T01:18:01.003Z,17.25
2023-03-25T01:18:22.656Z,17.27
2023-03-25T01:18:44.830Z,17.23
2023-03-25T01:19:07.765Z,17.28
2023-03-25T01:19:29.462Z,17.32
2023-03-25T01:19:52.214Z,17.37
2023-03-25T01:20:13.874Z,17.20
2023-03-25T01:20:35.614Z,17.26
2023-03-25T01:20:57.347Z,17.24
2023-03-25T01:21:20.149Z,17.31
2023-03-25T01:21:42.185Z,17.36
2023-03-25T01:22:05.636Z,17.15
2023-03-25T01:22:27.489Z,17.12
2023-03-25T01:23:33.937Z,17.20
2023-03-25T01:23:55.665Z,17.16
2023-03-25T01:24:19.341Z,17.18
2023-03-25T01:24:42.087Z,17.25
2023-03-25T01:25:04.210Z,17.11
2023-03-25T01:25:26.223Z,16.98
2023-03-25T01:25:48.485Z,17.08
2023-03-25T01:26:12.918Z,17.06
2023-03-25T01:26:36.243Z,17.00
2023-03-25T01:26:59.886Z,16.82
2023-03-25T01:27:24.801Z,16.88
2023-03-25T01:27:47.510Z,16.85
2023-03-25T01:28:10.818Z,16.84
2023-03-25T01:28:32.693Z,16.71
2023-03-25T01:28:54.618Z,16.83
2023-03-25T01:29:19.982Z,16.92
2023-03-25T01:29:41.780Z,16.96
2023-03-25T01:30:04.592Z,17.08
2023-03-25T01:30:26.334Z,17.10
2023-03-25T01:30:49.121Z,17.17
2023-03-25T01:31:13.173Z,17.20
2023-03-25T01:31:34.983Z,17.14
2023-03-25T01:31:57.108Z,17.16
2023-03-25T01:32:19.856Z,17.10
2023-03-25T01:32:41.554Z,17.03
2023-03-25T01:33:03.379Z,17.05
2023-03-25T01:33:25.500Z,17.03
2023-03-25T01:33:48.124Z,17.01
2023-03-25T01:34:10.761Z,16.97
2023-03-25T01:34:33.022Z,17.00
2023-03-25T01:34:57.320Z,16.88
2023-03-25T01:35:19.875Z,16.98
2023-03-25T01:35:42.017Z,17.04
2023-03-25T01:36:04.630Z,17.07
2023-03-25T01:36:29.408Z,17.10
2023-03-25T01:36:55.397Z,16.97
2023-03-25T01:37:18.096Z,16.92
2023-03-25T01:37:39.806Z,16.90
2023-03-25T01:38:01.519Z,16.93
2023-03-25T01:38:24.104Z,16.94
2023-03-25T01:38:47.973Z,16.82
2023-03-25T01:39:10.739Z,16.89
2023-03-25T01:39:32.719Z,16.98
2023-03-25T01:39:55.275Z,17.01
2023-03-25T01:40:20.988Z,16.73
2023-03-25T01:40:45.660Z,16.68
2023-03-25T01:41:09.165Z,16.58
2023-03-25T01:41:46.292Z,16.74
2023-03-25T01:42:11.897Z,16.82
2023-03-25T01:42:33.611Z,16.84
2023-03-25T01:42:56.261Z,16.84
2023-03-25T01:43:18.286Z,16.66
2023-03-25T01:43:39.933Z,16.89
2023-03-25T01:44:04.016Z,16.86
2023-03-25T01:45:04.629Z,16.93
2023-03-25T01:45:29.225Z,17.08
2023-03-25T01:45:52.000Z,17.09
2023-03-25T01:46:15.182Z,17.05
2023-03-25T01:46:38.550Z,17.05
2023-03-25T01:47:05.074Z,17.03
2023-03-25T01:47:27.405Z,17.09
2023-03-25T01:47:58.428Z,17.10
2023-03-25T01:48:23.634Z,17.10
2023-03-25T01:48:45.321Z,17.01
2023-03-25T01:49:09.776Z,16.90
2023-03-25T01:49:38.815Z,16.79
2023-03-25T01:50:00.474Z,16.79
2023-03-25T01:50:22.501Z,16.61
2023-03-25T01:50:48.455Z,16.69
2023-03-25T01:51:14.662Z,16.75
2023-03-25T01:51:40.767Z,16.79
2023-03-25T01:52:07.552Z,16.88
2023-03-25T01:52:30.729Z,16.74
2023-03-25T01:52:52.796Z,16.61
2023-03-25T01:53:14.527Z,16.64
2023-03-25T01:53:36.333Z,16.48
2023-03-25T01:53:59.172Z,16.52
2023-03-25T01:54:21.201Z,16.38
2023-03-25T01:54:44.045Z,16.46
2023-03-25T01:55:08.031Z,16.43
2023-03-25T01:55:33.189Z,16.37
2023-03-25T01:55:55.932Z,16.44
2023-03-25T01:56:22.435Z,16.59
2023-03-25T01:56:47.042Z,16.62
2023-03-25T01:57:13.036Z,16.72
2023-03-25T01:57:37.190Z,16.77
2023-03-25T01:58:02.758Z,16.77
2023-03-25T01:58:27.221Z,16.88
2023-03-25T01:58:51.138Z,16.95
2023-03-25T01:59:14.928Z,17.03
2023-03-25T01:59:39.260Z,16.97
2023-03-25T02:00:01.462Z,17.06
2023-03-25T02:00:26.605Z,16.81
2023-03-25T02:00:51.908Z,16.63
2023-03-25T02:01:17.164Z,16.48
2023-03-25T02:01:38.765Z,16.59
2023-03-25T02:02:04.131Z,16.56
2023-03-25T02:02:34.831Z,16.47
2023-03-25T02:03:00.299Z,16.48
2023-03-25T02:03:23.555Z,16.49
2023-03-25T02:03:46.516Z,16.59
2023-03-25T02:04:11.300Z,16.68
2023-03-25T02:04:39.107Z,16.75
2023-03-25T02:05:05.602Z,16.62
2023-03-25T02:05:33.669Z,16.55
2023-03-25T02:06:00.803Z,16.55
2023-03-25T02:06:28.935Z,16.65
2023-03-25T02:06:53.753Z,16.73
2023-03-25T02:07:18.639Z,16.84
2023-03-25T02:07:42.878Z,16.82
2023-03-25T02:08:09.151Z,16.86
2023-03-25T02:08:32.707Z,16.67
2023-03-25T02:08:56.870Z,16.83
2023-03-25T02:09:21.586Z,16.87
2023-03-25T02:09:44.517Z,16.87
2023-03-25T02:10:08.504Z,16.78
2023-03-25T02:10:30.552Z,16.79
2023-03-25T02:10:54.117Z,16.84
2023-03-25T02:11:17.773Z,16.91
2023-03-25T02:11:39.871Z,16.93
2023-03-25T02:12:01.514Z,16.84
2023-03-25T02:12:25.067Z,16.95
2023-03-25T02:12:47.285Z,16.97
2023-03-25T02:13:10.315Z,16.99
2023-03-25T02:13:34.665Z,16.77
2023-03-25T02:14:00.089Z,16.75
2023-03-25T02:14:26.024Z,16.70
2023-03-25T02:14:47.716Z,16.63
2023-03-25T02:15:11.828Z,16.56
2023-03-25T02:15:49.309Z,16.58
2023-03-25T02:16:25.516Z,16.63
2023-03-25T02:17:01.038Z,16.56
2023-03-25T02:17:33.571Z,16.69
2023-03-25T02:18:17.496Z,16.60
2023-03-25T02:18:49.355Z,16.55
2023-03-25T02:20:09.203Z,16.50
2023-03-25T02:21:18.012Z,16.40
2023-03-25T02:22:14.749Z,16.54
2023-03-25T02:23:11.277Z,16.61
2023-03-25T02:24:14.575Z,16.75
2023-03-25T02:25:19.036Z,16.78
2023-03-25T02:26:22.794Z,16.67
2023-03-25T02:27:14.013Z,16.83
2023-03-25T02:27:57.219Z,16.80
2023-03-25T02:28:29.681Z,16.84
2023-03-25T02:29:02.090Z,16.57
2023-03-25T02:29:38.455Z,16.68
2023-03-25T02:30:42.464Z,16.54
2023-03-25T02:31:19.052Z,16.39
2023-03-25T02:31:55.910Z,16.34
2023-03-25T02:32:38.006Z,16.49
2023-03-25T02:33:27.547Z,16.37
2023-03-25T02:34:19.480Z,16.23
2023-03-25T02:35:21.750Z,16.17
2023-03-25T02:36:02.012Z,16.27
2023-03-25T02:37:09.300Z,16.40
2023-03-25T02:37:51.056Z,16.40
2023-03-25T02:38:26.229Z,16.48
2023-03-25T02:38:50.464Z,16.45
2023-03-25T02:39:17.814Z,16.49
2023-03-25T02:39:44.549Z,16.51
2023-03-25T02:40:10.976Z,16.52
2023-03-25T02:40:38.336Z,16.45
2023-03-25T02:41:06.827Z,16.61
2023-03-25T02:41:40.293Z,16.60
2023-03-25T02:42:09.189Z,16.62
2023-03-25T02:42:37.612Z,16.41
2023-03-25T02:43:03.665Z,16.07
2023-03-25T02:43:33.439Z,16.16
2023-03-25T02:44:01.819Z,16.17
2023-03-25T02:44:31.526Z,16.28
2023-03-25T02:45:00.235Z,16.18
2023-03-25T02:45:30.192Z,16.28
2023-03-25T02:45:58.279Z,16.32
2023-03-25T02:46:23.803Z,16.36
2023-03-25T02:46:50.166Z,16.39
2023-03-25T02:47:17.982Z,16.38
2023-03-25T02:47:47.589Z,16.41
2023-03-25T02:48:14.944Z,16.38
2023-03-25T02:48:42.478Z,16.31
2023-03-25T02:49:08.600Z,16.36
2023-03-25T02:49:36.045Z,16.39
2023-03-25T02:50:04.693Z,16.38
2023-03-25T02:50:30.814Z,16.42
2023-03-25T02:50:57.263Z,16.47
2023-03-25T02:51:26.030Z,16.48
2023-03-25T02:51:55.677Z,16.49
2023-03-25T02:52:21.587Z,16.26
2023-03-25T02:52:50.463Z,16.21
2023-03-25T02:53:17.082Z,16.24
2023-03-25T02:53:42.871Z,16.23
2023-03-25T02:54:09.189Z,16.14
2023-03-25T02:54:34.219Z,15.97
2023-03-25T02:55:04.778Z,15.94
2023-03-25T02:55:30.510Z,15.90
2023-03-25T02:55:54.992Z,16.02
2023-03-25T02:56:22.289Z,15.96
2023-03-25T02:56:47.321Z,16.04
2023-03-25T02:57:14.408Z,16.10
2023-03-25T02:57:39.898Z,16.15
2023-03-25T02:58:09.816Z,16.17
2023-03-25T02:58:33.283Z,16.13
2023-03-25T02:58:56.960Z,15.99
2023-03-25T02:59:22.147Z,15.95
2023-03-25T02:59:47.887Z,15.99
2023-03-25T03:00:15.207Z,16.11
2023-03-25T03:00:38.301Z,16.15
2023-03-25T03:01:00.204Z,16.19
2023-03-25T03:01:26.622Z,16.19
2023-03-25T03:01:51.241Z,15.95
2023-03-25T03:02:15.825Z,15.83
2023-03-25T03:02:43.251Z,15.94
2023-03-25T03:03:07.222Z,15.94
2023-03-25T03:03:30.042Z,16.01
2023-03-25T03:03:55.247Z,15.96
2023-03-25T03:04:16.943Z,15.99
2023-03-25T03:04:46.234Z,16.07
2023-03-25T03:05:23.124Z,16.07
2023-03-25T03:05:50.514Z,16.02
2023-03-25T03:06:17.751Z,15.96
2023-03-25T03:06:42.810Z,16.12
2023-03-25T03:07:04.563Z,16.16
2023-03-25T03:07:29.376Z,16.22
2023-03-25T03:08:05.033Z,16.28
2023-03-25T03:08:42.047Z,16.35
2023-03-25T03:09:23.157Z,16.01
2023-03-25T03:09:51.560Z,16.06
2023-03-25T03:10:22.852Z,15.82
2023-03-25T03:10:52.930Z,15.72
2023-03-25T03:11:20.342Z,15.66
2023-03-25T03:11:52.396Z,15.85
2023-03-25T03:12:27.925Z,15.97
2023-03-25T03:12:59.498Z,16.12
2023-03-25T03:13:28.863Z,16.19
2023-03-25T03:14:14.760Z,16.29
2023-03-25T03:14:56.230Z,16.29
2023-03-25T03:15:27.398Z,16.27
2023-03-25T03:16:01.999Z,16.33
2023-03-25T03:16:32.890Z,16.38
2023-03-25T03:17:05.749Z,16.41
2023-03-25T03:17:39.214Z,16.43
2023-03-25T03:18:09.868Z,16.46
2023-03-25T03:18:44.736Z,16.46
2023-03-25T03:19:21.090Z,16.34
2023-03-25T03:19:52.663Z,16.38
2023-03-25T03:20:19.915Z,16.26
2023-03-25T03:20:54.807Z,15.96
2023-03-25T03:21:23.253Z,16.20
2023-03-25T03:21:55.337Z,16.23
2023-03-25T03:22:34.113Z,16.19
2023-03-25T03:23:06.099Z,16.06
2023-03-25T03:23:33.849Z,15.96
2023-03-25T03:23:58.336Z,15.94
2023-03-25T03:24:25.568Z,15.90
2023-03-25T03:24:51.367Z,15.74
2023-03-25T03:25:24.030Z,15.83
2023-03-25T03:25:50.984Z,15.93
2023-03-25T03:26:24.775Z,15.97
2023-03-25T03:26:55.282Z,15.84
2023-03-25T03:27:26.178Z,15.87
2023-03-25T03:27:53.938Z,16.02
2023-03-25T03:28:27.500Z,16.03
2023-03-25T03:28:55.348Z,15.87
2023-03-25T03:29:20.370Z,15.70
2023-03-25T03:29:47.339Z,15.58
2023-03-25T03:30:13.724Z,15.64
2023-03-25T03:30:43.829Z,15.61
2023-03-25T03:31:11.186Z,15.73
2023-03-25T03:31:48.770Z,15.82
2023-03-25T03:32:26.124Z,15.88
2023-03-25T03:32:55.857Z,15.91
2023-03-25T03:33:21.845Z,15.93
2023-03-25T03:33:50.704Z,15.89
2023-03-25T03:34:19.930Z,15.94
2023-03-25T03:34:46.959Z,15.97
2023-03-25T03:35:13.576Z,15.79
2023-03-25T03:35:40.733Z,15.60
2023-03-25T03:36:07.209Z,15.63
2023-03-25T03:36:34.469Z,15.71
2023-03-25T03:36:58.401Z,15.84
2023-03-25T03:37:27.341Z,15.86
2023-03-25T03:37:54.903Z,15.88
2023-03-25T03:38:23.738Z,15.80
2023-03-25T03:38:51.824Z,15.54
2023-03-25T03:39:20.652Z,15.65
2023-03-25T03:39:44.491Z,15.68
2023-03-25T03:40:14.032Z,15.80
2023-03-25T03:40:39.877Z,15.78
2023-03-25T03:41:07.268Z,15.89
2023-03-25T03:41:31.211Z,15.83
2023-03-25T03:41:58.618Z,15.88
2023-03-25T03:42:24.532Z,15.93
2023-03-25T03:42:52.824Z,15.97
2023-03-25T03:43:18.534Z,16.00
2023-03-25T03:43:46.450Z,16.09
2023-03-25T03:44:14.207Z,16.06
2023-03-25T03:44:39.945Z,16.10
2023-03-25T03:45:07.832Z,16.10
2023-03-25T03:45:35.161Z,16.21
2023-03-25T03:46:01.540Z,16.21
2023-03-25T03:46:29.308Z,16.19
2023-03-25T03:46:55.232Z,16.14
2023-03-25T03:47:22.413Z,16.36
2023-03-25T03:47:49.604Z,16.37
2023-03-25T03:48:15.876Z,16.38
2023-03-25T03:48:42.367Z,16.44
2023-03-25T03:49:10.962Z,16.11
2023-03-25T03:49:38.318Z,16.19
2023-03-25T03:50:04.937Z,16.21
2023-03-25T03:50:31.602Z,16.17
2023-03-25T03:50:56.826Z,16.15
2023-03-25T03:51:24.998Z,16.15
2023-03-25T03:51:52.433Z,16.20
2023-03-25T03:52:21.550Z,16.24
2023-03-25T03:52:48.094Z,16.24
2023-03-25T03:53:15.966Z,16.22
2023-03-25T03:53:42.554Z,16.25
2023-03-25T03:54:10.070Z,16.24
2023-03-25T03:54:35.922Z,16.38
2023-03-25T03:55:02.100Z,16.45
2023-03-25T03:55:29.260Z,16.48
2023-03-25T03:56:01.914Z,16.54
2023-03-25T03:56:28.988Z,16.57
2023-03-25T03:56:54.279Z,16.63
2023-03-25T03:57:21.410Z,16.69
2023-03-25T03:57:48.073Z,16.59
2023-03-25T03:58:15.548Z,16.56
2023-03-25T03:58:41.808Z,16.62
2023-03-25T03:59:09.344Z,16.66
2023-03-25T03:59:40.397Z,16.69
2023-03-25T04:00:06.543Z,16.68
2023-03-25T04:00:41.948Z,16.53
2023-03-25T04:01:09.893Z,16.56
2023-03-25T04:01:38.033Z,16.65
2023-03-25T04:02:03.263Z,16.66
2023-03-25T04:02:32.861Z,16.53
2023-03-25T04:02:59.519Z,16.32
2023-03-25T04:03:24.685Z,16.39
2023-03-25T04:03:53.278Z,16.43
2023-03-25T04:04:20.505Z,16.30
2023-03-25T04:04:43.883Z,16.29
2023-03-25T04:05:08.877Z,16.33
2023-03-25T04:05:31.882Z,16.24
2023-03-25T04:05:59.624Z,16.32
2023-03-25T04:06:26.926Z,16.37
2023-03-25T04:06:56.902Z,16.36
2023-03-25T04:07:22.366Z,16.37
2023-03-25T04:07:54.581Z,16.28
2023-03-25T04:08:26.498Z,16.08
2023-03-25T04:08:58.814Z,16.13
2023-03-25T04:09:28.043Z,16.05
2023-03-25T04:09:56.689Z,16.00
2023-03-25T04:10:23.058Z,15.90
2023-03-25T04:10:52.724Z,15.95
2023-03-25T04:11:21.896Z,15.90
2023-03-25T04:11:47.171Z,15.99
2023-03-25T04:12:17.019Z,15.96
2023-03-25T04:12:44.423Z,16.07
2023-03-25T04:13:10.617Z,16.18
2023-03-25T04:13:35.308Z,16.22
2023-03-25T04:14:00.879Z,16.30
2023-03-25T04:14:23.820Z,16.27
2023-03-25T04:14:46.225Z,16.20
2023-03-25T04:15:08.989Z,16.27
2023-03-25T04:15:30.648Z,16.24
2023-03-25T04:15:53.599Z,16.27
2023-03-25T04:16:16.661Z,16.24
2023-03-25T04:16:38.558Z,16.23
2023-03-25T04:17:00.222Z,16.30
2023-03-25T04:17:23.974Z,16.36
2023-03-25T04:17:47.986Z,16.40
2023-03-25T04:18:09.920Z,16.24
2023-03-25T04:18:33.810Z,16.24
2023-03-25T04:18:58.333Z,16.28
2023-03-25T04:19:20.059Z,16.38
2023-03-25T04:19:41.694Z,16.38
2023-03-25T04:20:06.577Z,16.34
2023-03-25T04:20:35.116Z,16.39
2023-03-25T04:20:56.930Z,16.29
2023-03-25T04:21:18.655Z,16.20
2023-03-25T04:21:40.285Z,15.96
2023-03-25T04:22:04.197Z,16.04
2023-03-25T04:22:26.217Z,16.05
2023-03-25T04:22:47.806Z,15.99
2023-03-25T04:23:10.404Z,15.85
2023-03-25T04:23:32.300Z,15.75
2023-03-25T04:23:56.312Z,15.69
2023-03-25T04:24:20.519Z,15.88
2023-03-25T04:24:42.714Z,15.90
2023-03-25T04:25:05.861Z,15.62
2023-03-25T04:25:30.333Z,15.56
2023-03-25T04:25:53.550Z,15.69
2023-03-25T04:26:15.545Z,15.54
2023-03-25T04:26:38.197Z,15.72
2023-03-25T04:27:03.624Z,15.74
2023-03-25T04:27:29.764Z,15.83
2023-03-25T04:27:53.648Z,15.77
2023-03-25T04:28:17.699Z,15.82
2023-03-25T04:28:41.839Z,15.83
2023-03-25T04:29:04.766Z,15.80
2023-03-25T04:29:26.403Z,15.78
2023-03-25T04:29:47.994Z,15.81
2023-03-25T04:30:11.722Z,15.96
2023-03-25T04:30:35.554Z,15.97
2023-03-25T04:31:00.287Z,15.99
2023-03-25T04:31:22.044Z,16.02
2023-03-25T04:31:47.110Z,16.03
2023-03-25T04:32:11.902Z,16.04
2023-03-25T04:32:35.713Z,16.07
2023-03-25T04:32:57.458Z,15.87
2023-03-25T04:33:20.899Z,15.76
2023-03-25T04:33:46.662Z,15.86
2023-03-25T04:34:09.858Z,15.88
2023-03-25T04:34:31.440Z,15.93
2023-03-25T04:34:57.574Z,15.98
2023-03-25T04:35:21.081Z,15.95
2023-03-25T04:35:42.731Z,15.93
2023-03-25T04:36:06.750Z,15.96
2023-03-25T04:36:29.720Z,16.05
2023-03-25T04:36:51.891Z,16.03
2023-03-25T04:37:13.836Z,16.05
2023-03-25T04:37:37.033Z,16.07
2023-03-25T04:37:59.349Z,16.03
2023-03-25T04:38:21.171Z,15.79
2023-03-25T04:38:45.642Z,15.79
2023-03-25T04:39:11.690Z,15.64
2023-03-25T04:39:33.382Z,15.71
2023-03-25T04:39:56.105Z,15.67
2023-03-25T04:40:19.734Z,15.73
2023-03-25T04:40:46.616Z,15.50
2023-03-25T04:41:10.584Z,15.74
2023-03-25T04:41:33.536Z,15.72
2023-03-25T04:41:56.652Z,15.73
2023-03-25T04:42:19.312Z,15.85
2023-03-25T04:42:42.709Z,15.64
2023-03-25T04:43:04.396Z,15.76
2023-03-25T04:43:26.059Z,15.77
2023-03-25T04:43:47.778Z,15.82
2023-03-25T04:44:11.318Z,15.80
2023-03-25T04:44:33.813Z,15.60
2023-03-25T04:44:55.571Z,15.66
2023-03-25T04:45:17.391Z,15.98
2023-03-25T04:45:42.907Z,16.04
2023-03-25T04:46:05.142Z,16.09
2023-03-25T04:46:27.420Z,16.10
2023-03-25T04:46:49.340Z,16.12
2023-03-25T04:47:16.199Z,16.21
2023-03-25T04:47:37.895Z,16.27
2023-03-25T04:47:59.546Z,16.34
2023-03-25T04:48:24.161Z,16.40
2023-03-25T04:48:47.479Z,16.45
2023-03-25T04:49:19.082Z,16.36
2023-03-25T04:49:42.166Z,16.41
2023-03-25T04:50:04.199Z,16.42
2023-03-25T04:50:28.315Z,16.34
2023-03-25T04:50:52.258Z,16.39
2023-03-25T04:51:15.376Z,16.36
2023-03-25T04:51:37.840Z,16.42
2023-03-25T04:52:02.187Z,16.49
2023-03-25T04:52:23.990Z,16.39
2023-03-25T04:52:46.663Z,16.32
2023-03-25T04:53:08.823Z,16.20
2023-03-25T04:53:31.435Z,16.16
2023-03-25T04:53:53.161Z,16.05
2023-03-25T04:54:18.117Z,16.08
2023-03-25T04:54:41.047Z,15.92
2023-03-25T04:55:02.735Z,16.00
2023-03-25T04:55:25.788Z,16.02
2023-03-25T04:55:50.360Z,15.97
2023-03-25T04:56:16.229Z,16.08
2023-03-25T04:56:39.450Z,16.11
2023-03-25T04:57:01.548Z,16.23
2023-03-25T04:57:25.775Z,16.11
2023-03-25T04:57:49.677Z,15.92
2023-03-25T04:58:11.436Z,15.93
2023-03-25T04:58:33.156Z,16.09
2023-03-25T04:58:54.781Z,16.07
2023-03-25T04:59:18.186Z,16.18
2023-03-25T04:59:39.814Z,16.22
2023-03-25T05:00:01.413Z,16.07
2023-03-25T05:00:24.670Z,16.02
2023-03-25T05:00:49.453Z,16.06
2023-03-25T05:01:21.281Z,16.18
2023-03-25T05:01:45.829Z,16.21
2023-03-25T05:02:13.210Z,16.20
2023-03-25T05:02:35.261Z,16.26
2023-03-25T05:03:01.795Z,16.28
2023-03-25T05:03:24.255Z,16.30
2023-03-25T05:03:50.147Z,16.21
2023-03-25T05:04:14.082Z,16.23
2023-03-25T05:04:36.733Z,16.17
2023-03-25T05:05:02.191Z,16.31
2023-03-25T05:05:25.699Z,16.37
2023-03-25T05:05:47.390Z,16.41
2023-03-25T05:06:11.302Z,16.42
2023-03-25T05:06:33.847Z,16.26
2023-03-25T05:06:56.881Z,16.34
2023-03-25T05:07:19.176Z,16.27
2023-03-25T05:07:40.844Z,16.33
2023-03-25T05:08:03.874Z,16.37
2023-03-25T05:08:25.477Z,16.24
2023-03-25T05:08:47.137Z,16.34
2023-03-25T05:09:10.442Z,16.32
2023-03-25T05:09:34.398Z,16.40
2023-03-25T05:09:57.090Z,16.34
2023-03-25T05:10:22.876Z,16.31
2023-03-25T05:10:44.812Z,16.23
2023-03-25T05:11:06.695Z,16.35
2023-03-25T05:11:29.382Z,16.45
2023-03-25T05:11:52.774Z,16.53
2023-03-25T05:12:14.420Z,16.59
2023-03-25T05:12:36.001Z,16.61
2023-03-25T05:13:02.215Z,16.58
2023-03-25T05:13:25.253Z,16.38
2023-03-25T05:13:48.705Z,16.42
2023-03-25T05:14:11.872Z,16.49
2023-03-25T05:14:33.496Z,16.55
2023-03-25T05:14:56.207Z,16.56
2023-03-25T05:15:18.105Z,16.52
2023-03-25T05:15:39.939Z,16.41
2023-03-25T05:16:01.662Z,16.39
2023-03-25T05:16:24.397Z,16.39
2023-03-25T05:16:46.909Z,16.43
2023-03-25T05:17:08.602Z,16.33
2023-03-25T05:17:31.203Z,16.40
2023-03-25T05:17:54.013Z,16.39
2023-03-25T05:18:16.953Z,16.40
2023-03-25T05:18:38.512Z,16.47
2023-03-25T05:19:00.314Z,16.51
2023-03-25T05:19:22.930Z,16.56
2023-03-25T05:19:44.842Z,16.48
2023-03-25T05:20:08.631Z,16.55
2023-03-25T05:20:35.126Z,16.56
2023-03-25T05:20:57.772Z,16.55
2023-03-25T05:21:19.369Z,16.58
2023-03-25T05:21:42.378Z,16.56
2023-03-25T05:22:04.817Z,16.59
2023-03-25T05:22:26.835Z,16.54
2023-03-25T05:22:49.405Z,16.64
2023-03-25T05:23:16.444Z,16.68
2023-03-25T05:23:38.195Z,16.75
2023-03-25T05:24:01.687Z,16.71
2023-03-25T05:24:23.339Z,16.67
2023-03-25T05:24:47.372Z,16.66
2023-03-25T05:25:10.732Z,16.60
2023-03-25T05:25:34.427Z,16.59
2023-03-25T05:25:57.081Z,16.37
2023-03-25T05:26:19.433Z,16.25
2023-03-25T05:26:42.547Z,16.22
2023-03-25T05:27:04.155Z,16.30
2023-03-25T05:27:25.765Z,16.37
2023-03-25T05:27:48.514Z,16.07
2023-03-25T05:28:13.779Z,16.12
2023-03-25T05:28:35.875Z,16.21
2023-03-25T05:29:01.509Z,16.06
2023-03-25T05:29:24.147Z,16.25
2023-03-25T05:29:46.102Z,16.32